sensor_id;sensor_type;location;lat;lon;timestamp;pressure;altitude;pressure_sealevel;temperature;humidity
69737;BME280;64476;55.004;73.342;2023-04-15T00:01:25;101052.88;;;-6.98;34.44
69737;BME280;64476;55.004;73.342;2023-04-15T00:04:27;100964.00;;;-7.57;34.21
69737;BME280;64476;55.004;73.342;2023-04-15T00:07:28;101056.47;;;-7.07;34.55
69737;BME280;64476;55.004;73.342;2023-04-15T00:10:30;101012.16;;;-7.43;34.26
69737;BME280;64476;55.004;73.342;2023-04-15T00:13:32;101085.63;;;-7.17;34.82
69737;BME280;64476;55.004;73.342;2023-04-15T00:16:41;101094.06;;;-7.12;34.73
69737;BME280;64476;55.004;73.342;2023-04-15T00:19:46;100989.06;;;-7.76;34.91
69737;BME280;64476;55.004;73.342;2023-04-15T00:22:48;101073.81;;;-7.21;34.26
69737;BME280;64476;55.004;73.342;2023-04-15T00:25:50;101087.75;;;-6.97;34.54
69737;BME280;64476;55.004;73.342;2023-04-15T00:28:55;101045.78;;;-7.24;34.37
69737;BME280;64476;55.004;73.342;2023-04-15T00:31:57;101063.34;;;-7.09;34.46
69737;BME280;64476;55.004;73.342;2023-04-15T00:34:59;101023.13;;;-7.38;34.76
69737;BME280;64476;55.004;73.342;2023-04-15T00:38:12;101069.03;;;-6.98;34.47
69737;BME280;64476;55.004;73.342;2023-04-15T00:41:13;101011.13;;;-7.34;34.87
69737;BME280;64476;55.004;73.342;2023-04-15T00:44:15;101065.13;;;-7.12;34.93
69737;BME280;64476;55.004;73.342;2023-04-15T00:47:19;101033.97;;;-7.28;35.05
69737;BME280;64476;55.004;73.342;2023-04-15T00:50:22;101028.72;;;-7.22;34.94
69737;BME280;64476;55.004;73.342;2023-04-15T00:53:23;101043.03;;;-7.15;34.95
69737;BME280;64476;55.004;73.342;2023-04-15T00:56:36;101042.03;;;-7.08;34.58
69737;BME280;64476;55.004;73.342;2023-04-15T00:59:38;100984.06;;;-7.42;34.48
69737;BME280;64476;55.004;73.342;2023-04-15T01:02:45;101023.84;;;-7.31;35.02
69737;BME280;64476;55.004;73.342;2023-04-15T01:05:55;101031.97;;;-7.53;34.90
69737;BME280;64476;55.004;73.342;2023-04-15T01:09:00;101042.19;;;-7.54;34.75
69737;BME280;64476;55.004;73.342;2023-04-15T01:12:03;101104.56;;;-7.26;34.72
69737;BME280;64476;55.004;73.342;2023-04-15T01:15:05;101099.41;;;-7.24;34.72
69737;BME280;64476;55.004;73.342;2023-04-15T01:18:08;101090.84;;;-7.22;35.22
69737;BME280;64476;55.004;73.342;2023-04-15T01:21:12;101094.59;;;-7.36;35.02
69737;BME280;64476;55.004;73.342;2023-04-15T01:27:23;101108.50;;;-7.51;34.65
69737;BME280;64476;55.004;73.342;2023-04-15T01:30:25;101097.78;;;-7.67;34.97
69737;BME280;64476;55.004;73.342;2023-04-15T01:33:28;101129.66;;;-7.46;34.61
69737;BME280;64476;55.004;73.342;2023-04-15T01:36:48;101113.66;;;-7.53;34.99
69737;BME280;64476;55.004;73.342;2023-04-15T01:39:50;101030.81;;;-7.80;34.96
69737;BME280;64476;55.004;73.342;2023-04-15T01:42:52;101021.94;;;-7.60;34.99
69737;BME280;64476;55.004;73.342;2023-04-15T01:46:26;101025.69;;;-7.38;34.97
69737;BME280;64476;55.004;73.342;2023-04-15T01:49:35;101000.41;;;-7.49;34.42
69737;BME280;64476;55.004;73.342;2023-04-15T01:52:37;101023.25;;;-7.05;34.81
69737;BME280;64476;55.004;73.342;2023-04-15T01:55:40;101021.69;;;-7.12;34.51
69737;BME280;64476;55.004;73.342;2023-04-15T01:58:44;100945.91;;;-7.48;34.79
69737;BME280;64476;55.004;73.342;2023-04-15T02:01:47;100976.81;;;-7.23;34.34
69737;BME280;64476;55.004;73.342;2023-04-15T02:04:50;101009.44;;;-6.98;34.39
69737;BME280;64476;55.004;73.342;2023-04-15T02:07:56;101006.69;;;-6.90;34.66
69737;BME280;64476;55.004;73.342;2023-04-15T02:11:03;100968.63;;;-7.01;34.20
69737;BME280;64476;55.004;73.342;2023-04-15T02:14:07;100972.59;;;-6.89;34.03
69737;BME280;64476;55.004;73.342;2023-04-15T02:17:10;101015.06;;;-6.51;34.48
69737;BME280;64476;55.004;73.342;2023-04-15T02:20:13;100985.59;;;-6.64;34.13
69737;BME280;64476;55.004;73.342;2023-04-15T02:23:16;100954.38;;;-6.76;33.78
69737;BME280;64476;55.004;73.342;2023-04-15T02:26:56;100992.25;;;-6.59;33.70
69737;BME280;64476;55.004;73.342;2023-04-15T02:30:02;100926.16;;;-7.05;33.79
69737;BME280;64476;55.004;73.342;2023-04-15T02:37:13;101007.72;;;-6.63;33.86
69737;BME280;64476;55.004;73.342;2023-04-15T02:40:17;100993.00;;;-6.55;33.58
69737;BME280;64476;55.004;73.342;2023-04-15T02:43:21;100985.69;;;-6.36;33.21
69737;BME280;64476;55.004;73.342;2023-04-15T02:46:25;100999.66;;;-6.17;33.10
69737;BME280;64476;55.004;73.342;2023-04-15T02:49:29;100916.53;;;-6.63;33.29
69737;BME280;64476;55.004;73.342;2023-04-15T02:52:32;101006.59;;;-5.91;32.76
69737;BME280;64476;55.004;73.342;2023-04-15T02:55:35;101012.06;;;-6.03;32.87
69737;BME280;64476;55.004;73.342;2023-04-15T02:59:10;101030.63;;;-5.95;32.13
69737;BME280;64476;55.004;73.342;2023-04-15T03:02:23;101023.72;;;-5.93;32.74
69737;BME280;64476;55.004;73.342;2023-04-15T03:05:31;101025.38;;;-5.92;32.16
69737;BME280;64476;55.004;73.342;2023-04-15T03:08:35;101031.34;;;-5.91;32.21
69737;BME280;64476;55.004;73.342;2023-04-15T03:11:38;101052.69;;;-5.91;32.23
69737;BME280;64476;55.004;73.342;2023-04-15T03:14:47;101004.13;;;-6.25;31.75
69737;BME280;64476;55.004;73.342;2023-04-15T03:17:51;101010.97;;;-6.26;31.84
69737;BME280;64476;55.004;73.342;2023-04-15T03:20:54;101015.59;;;-6.07;31.77
69737;BME280;64476;55.004;73.342;2023-04-15T03:23:57;100923.44;;;-6.35;31.29
69737;BME280;64476;55.004;73.342;2023-04-15T03:27:00;101016.50;;;-5.79;31.12
69737;BME280;64476;55.004;73.342;2023-04-15T03:30:05;101025.00;;;-5.78;30.96
69737;BME280;64476;55.004;73.342;2023-04-15T03:33:12;100928.28;;;-6.26;30.21
69737;BME280;64476;55.004;73.342;2023-04-15T03:36:24;100960.41;;;-5.86;29.78
69737;BME280;64476;55.004;73.342;2023-04-15T03:39:27;101000.03;;;-5.42;29.48
69737;BME280;64476;55.004;73.342;2023-04-15T03:42:30;101002.19;;;-5.30;29.53
69737;BME280;64476;55.004;73.342;2023-04-15T03:45:33;101010.38;;;-5.18;28.96
69737;BME280;64476;55.004;73.342;2023-04-15T03:49:08;100959.88;;;-5.41;28.88
69737;BME280;64476;55.004;73.342;2023-04-15T03:52:13;100979.78;;;-4.97;29.12
69737;BME280;64476;55.004;73.342;2023-04-15T03:55:16;100986.50;;;-4.67;28.85
69737;BME280;64476;55.004;73.342;2023-04-15T03:58:19;100858.59;;;-5.25;28.36
69737;BME280;64476;55.004;73.342;2023-04-15T04:01:24;100994.31;;;-4.45;28.26
69737;BME280;64476;55.004;73.342;2023-04-15T04:04:59;100998.13;;;-4.32;26.70
69737;BME280;64476;55.004;73.342;2023-04-15T04:08:13;100941.50;;;-4.51;27.67
69737;BME280;64476;55.004;73.342;2023-04-15T04:11:24;100990.25;;;-4.04;27.64
69737;BME280;64476;55.004;73.342;2023-04-15T04:14:27;100980.72;;;-4.01;27.66
69737;BME280;64476;55.004;73.342;2023-04-15T04:17:31;100888.03;;;-4.62;27.00
69737;BME280;64476;55.004;73.342;2023-04-15T04:20:34;101012.03;;;-3.91;26.94
69737;BME280;64476;55.004;73.342;2023-04-15T04:23:37;100956.78;;;-4.25;27.32
69737;BME280;64476;55.004;73.342;2023-04-15T04:27:11;101030.84;;;-3.67;26.78
69737;BME280;64476;55.004;73.342;2023-04-15T04:30:47;101026.88;;;-3.52;27.21
69737;BME280;64476;55.004;73.342;2023-04-15T04:33:59;101025.16;;;-3.53;26.97
69737;BME280;64476;55.004;73.342;2023-04-15T04:37:02;101043.44;;;-3.37;27.00
69737;BME280;64476;55.004;73.342;2023-04-15T04:40:06;100961.22;;;-3.83;26.47
69737;BME280;64476;55.004;73.342;2023-04-15T04:43:14;100972.09;;;-3.76;25.71
69737;BME280;64476;55.004;73.342;2023-04-15T04:46:24;100988.66;;;-3.61;25.88
69737;BME280;64476;55.004;73.342;2023-04-15T04:49:27;101013.53;;;-3.18;25.85
69737;BME280;64476;55.004;73.342;2023-04-15T04:56:05;101036.56;;;-2.72;25.28
69737;BME280;64476;55.004;73.342;2023-04-15T04:59:11;101022.78;;;-2.71;25.62
69737;BME280;64476;55.004;73.342;2023-04-15T05:02:24;101011.50;;;-2.67;25.11
69737;BME280;64476;55.004;73.342;2023-04-15T05:05:28;100972.63;;;-2.82;25.13
69737;BME280;64476;55.004;73.342;2023-04-15T05:08:31;101030.53;;;-2.31;25.32
69737;BME280;64476;55.004;73.342;2023-04-15T05:11:44;100965.59;;;-2.58;24.75
69737;BME280;64476;55.004;73.342;2023-04-15T05:18:07;100965.38;;;-2.33;24.70
69737;BME280;64476;55.004;73.342;2023-04-15T05:21:10;100998.00;;;-1.94;24.47
69737;BME280;64476;55.004;73.342;2023-04-15T05:24:13;100977.19;;;-1.89;24.00
69737;BME280;64476;55.004;73.342;2023-04-15T05:27:16;100992.44;;;-1.85;24.18
69737;BME280;64476;55.004;73.342;2023-04-15T05:30:20;100954.53;;;-2.20;23.67
69737;BME280;64476;55.004;73.342;2023-04-15T05:33:23;100985.19;;;-1.76;23.90
69737;BME280;64476;55.004;73.342;2023-04-15T05:36:26;100967.09;;;-1.75;23.99
69737;BME280;64476;55.004;73.342;2023-04-15T05:39:31;100785.72;;;-2.81;24.01
69737;BME280;64476;55.004;73.342;2023-04-15T05:42:35;100991.97;;;-1.38;24.15
69737;BME280;64476;55.004;73.342;2023-04-15T05:45:38;100987.75;;;-1.21;24.06
69737;BME280;64476;55.004;73.342;2023-04-15T05:48:41;100975.94;;;-1.08;23.45
69737;BME280;64476;55.004;73.342;2023-04-15T05:51:46;100971.22;;;-1.00;23.10
69737;BME280;64476;55.004;73.342;2023-04-15T05:54:49;100947.63;;;-1.10;22.89
69737;BME280;64476;55.004;73.342;2023-04-15T06:00:58;100981.22;;;-0.76;22.73
69737;BME280;64476;55.004;73.342;2023-04-15T06:04:01;100935.03;;;-0.98;22.70
69737;BME280;64476;55.004;73.342;2023-04-15T06:07:04;100987.84;;;-0.53;22.61
69737;BME280;64476;55.004;73.342;2023-04-15T06:10:08;100979.06;;;-0.33;22.06
69737;BME280;64476;55.004;73.342;2023-04-15T06:13:10;100976.31;;;-0.30;22.55
69737;BME280;64476;55.004;73.342;2023-04-15T06:16:14;100967.91;;;-0.18;22.33
69737;BME280;64476;55.004;73.342;2023-04-15T06:19:17;100991.13;;;-0.01;22.40
69737;BME280;64476;55.004;73.342;2023-04-15T06:29:52;100963.38;;;0.19;22.29
69737;BME280;64476;55.004;73.342;2023-04-15T06:36:06;100912.69;;;0.00;21.82
69737;BME280;64476;55.004;73.342;2023-04-15T06:39:09;100876.84;;;0.10;21.58
69737;BME280;64476;55.004;73.342;2023-04-15T06:42:12;100906.31;;;0.53;21.43
69737;BME280;64476;55.004;73.342;2023-04-15T06:45:15;100943.25;;;0.85;21.26
69737;BME280;64476;55.004;73.342;2023-04-15T06:48:24;100901.75;;;0.73;21.12
69737;BME280;64476;55.004;73.342;2023-04-15T06:51:26;100941.75;;;0.97;21.00
69737;BME280;64476;55.004;73.342;2023-04-15T06:54:29;100922.22;;;0.92;20.83
69737;BME280;64476;55.004;73.342;2023-04-15T06:57:42;100926.13;;;0.99;21.16
69737;BME280;64476;55.004;73.342;2023-04-15T07:00:46;100930.75;;;1.22;20.87
69737;BME280;64476;55.004;73.342;2023-04-15T07:03:49;100879.72;;;1.10;20.63
69737;BME280;64476;55.004;73.342;2023-04-15T07:06:52;100860.03;;;1.07;21.16
69737;BME280;64476;55.004;73.342;2023-04-15T07:10:08;100881.31;;;1.41;20.63
69737;BME280;64476;55.004;73.342;2023-04-15T07:13:13;100908.66;;;1.74;20.75
69737;BME280;64476;55.004;73.342;2023-04-15T07:16:24;100892.38;;;1.86;20.06
69737;BME280;64476;55.004;73.342;2023-04-15T07:19:27;100883.47;;;1.90;19.84
69737;BME280;64476;55.004;73.342;2023-04-15T07:22:30;100893.09;;;1.88;20.46
69737;BME280;64476;55.004;73.342;2023-04-15T07:25:33;100845.63;;;1.46;20.30
69737;BME280;64476;55.004;73.342;2023-04-15T07:29:08;100812.16;;;1.29;20.26
69737;BME280;64476;55.004;73.342;2023-04-15T07:32:11;100853.56;;;1.29;19.92
69737;BME280;64476;55.004;73.342;2023-04-15T07:35:13;100814.84;;;1.13;19.92
69737;BME280;64476;55.004;73.342;2023-04-15T07:38:17;100868.44;;;1.54;19.88
69737;BME280;64476;55.004;73.342;2023-04-15T07:41:25;100760.22;;;1.03;20.25
69737;BME280;64476;55.004;73.342;2023-04-15T07:44:29;100847.56;;;1.43;19.73
69737;BME280;64476;55.004;73.342;2023-04-15T07:47:32;100842.66;;;1.38;20.57
69737;BME280;64476;55.004;73.342;2023-04-15T07:50:35;100756.44;;;0.80;20.73
69737;BME280;64476;55.004;73.342;2023-04-15T07:53:38;100846.56;;;1.31;20.46
69737;BME280;64476;55.004;73.342;2023-04-15T07:56:41;100806.69;;;1.33;20.23
69737;BME280;64476;55.004;73.342;2023-04-15T07:59:44;100796.78;;;1.40;20.66
69737;BME280;64476;55.004;73.342;2023-04-15T08:02:53;100764.22;;;1.50;20.07
69737;BME280;64476;55.004;73.342;2023-04-15T08:05:58;100822.22;;;1.89;19.74
69737;BME280;64476;55.004;73.342;2023-04-15T08:09:02;100817.28;;;1.99;19.40
69737;BME280;64476;55.004;73.342;2023-04-15T08:12:05;100803.00;;;1.79;19.90
69737;BME280;64476;55.004;73.342;2023-04-15T08:15:09;100811.66;;;1.92;20.19
69737;BME280;64476;55.004;73.342;2023-04-15T08:18:12;100793.72;;;1.89;19.80
69737;BME280;64476;55.004;73.342;2023-04-15T08:21:24;100745.94;;;1.66;20.09
69737;BME280;64476;55.004;73.342;2023-04-15T08:24:27;100747.31;;;1.99;19.81
69737;BME280;64476;55.004;73.342;2023-04-15T08:27:30;100747.34;;;2.12;19.35
69737;BME280;64476;55.004;73.342;2023-04-15T08:30:33;100742.97;;;1.99;20.26
69737;BME280;64476;55.004;73.342;2023-04-15T08:34:08;100774.88;;;2.00;19.94
69737;BME280;64476;55.004;73.342;2023-04-15T08:37:19;100754.72;;;1.91;20.58
69737;BME280;64476;55.004;73.342;2023-04-15T08:40:26;100748.56;;;2.06;20.08
69737;BME280;64476;55.004;73.342;2023-04-15T08:43:48;100718.09;;;1.97;19.91
69737;BME280;64476;55.004;73.342;2023-04-15T08:47:30;100716.88;;;1.88;20.27
69737;BME280;64476;55.004;73.342;2023-04-15T08:50:33;100659.81;;;1.63;20.42
69737;BME280;64476;55.004;73.342;2023-04-15T08:54:09;100706.59;;;2.01;20.81
69737;BME280;64476;55.004;73.342;2023-04-15T08:57:13;100719.75;;;2.11;20.81
69737;BME280;64476;55.004;73.342;2023-04-15T09:00:27;100647.88;;;1.47;20.70
69737;BME280;64476;55.004;73.342;2023-04-15T09:03:31;100748.25;;;1.98;19.96
69737;BME280;64476;55.004;73.342;2023-04-15T09:06:34;100680.66;;;1.61;20.10
69737;BME280;64476;55.004;73.342;2023-04-15T09:09:37;100751.09;;;2.08;20.76
69737;BME280;64476;55.004;73.342;2023-04-15T09:12:42;100727.13;;;2.04;20.18
69737;BME280;64476;55.004;73.342;2023-04-15T09:15:49;100720.38;;;2.14;19.96
69737;BME280;64476;55.004;73.342;2023-04-15T09:18:52;100681.19;;;2.06;20.82
69737;BME280;64476;55.004;73.342;2023-04-15T09:21:57;100697.78;;;2.29;20.67
69737;BME280;64476;55.004;73.342;2023-04-15T09:25:00;100721.66;;;2.47;20.74
69737;BME280;64476;55.004;73.342;2023-04-15T09:28:03;100689.59;;;2.10;20.15
69737;BME280;64476;55.004;73.342;2023-04-15T09:31:06;100727.88;;;2.32;20.80
69737;BME280;64476;55.004;73.342;2023-04-15T09:34:09;100741.56;;;2.21;20.15
69737;BME280;64476;55.004;73.342;2023-04-15T09:37:12;100672.06;;;1.73;19.78
69737;BME280;64476;55.004;73.342;2023-04-15T09:43:55;100695.03;;;1.52;20.14
69737;BME280;64476;55.004;73.342;2023-04-15T09:47:34;100719.94;;;1.41;20.44
69737;BME280;64476;55.004;73.342;2023-04-15T09:50:40;100700.66;;;1.18;20.14
69737;BME280;64476;55.004;73.342;2023-04-15T09:53:42;100665.94;;;0.93;20.70
69737;BME280;64476;55.004;73.342;2023-04-15T10:00:22;100654.81;;;1.20;19.97
69737;BME280;64476;55.004;73.342;2023-04-15T10:03:30;100698.34;;;1.54;19.84
69737;BME280;64476;55.004;73.342;2023-04-15T10:06:33;100693.72;;;1.72;20.10
69737;BME280;64476;55.004;73.342;2023-04-15T10:09:40;100721.59;;;1.96;19.50
69737;BME280;64476;55.004;73.342;2023-04-15T10:13:22;100688.00;;;1.94;19.53
69737;BME280;64476;55.004;73.342;2023-04-15T10:17:00;100725.78;;;2.24;19.47
69737;BME280;64476;55.004;73.342;2023-04-15T10:20:04;100733.69;;;2.48;19.18
69737;BME280;64476;55.004;73.342;2023-04-15T10:23:38;100661.28;;;2.19;19.71
69737;BME280;64476;55.004;73.342;2023-04-15T10:26:43;100704.66;;;2.43;19.50
69737;BME280;64476;55.004;73.342;2023-04-15T10:30:20;100725.81;;;2.49;19.60
69737;BME280;64476;55.004;73.342;2023-04-15T10:33:24;100723.81;;;2.66;19.41
69737;BME280;64476;55.004;73.342;2023-04-15T10:36:37;100707.66;;;2.49;18.93
69737;BME280;64476;55.004;73.342;2023-04-15T10:39:42;100720.00;;;2.59;19.02
69737;BME280;64476;55.004;73.342;2023-04-15T10:46:41;100669.59;;;2.37;18.46
69737;BME280;64476;55.004;73.342;2023-04-15T10:49:57;100721.97;;;2.68;18.80
69737;BME280;64476;55.004;73.342;2023-04-15T10:53:10;100718.25;;;2.59;19.32
69737;BME280;64476;55.004;73.342;2023-04-15T10:56:16;100727.13;;;2.81;19.26
69737;BME280;64476;55.004;73.342;2023-04-15T10:59:20;100698.28;;;2.85;19.24
69737;BME280;64476;55.004;73.342;2023-04-15T11:06:47;100721.34;;;3.50;18.74
69737;BME280;64476;55.004;73.342;2023-04-15T11:09:54;100733.78;;;3.58;19.06
69737;BME280;64476;55.004;73.342;2023-04-15T11:13:16;100729.88;;;4.12;18.68
69737;BME280;64476;55.004;73.342;2023-04-15T11:16:24;100727.81;;;4.39;18.53
69737;BME280;64476;55.004;73.342;2023-04-15T11:19:38;100733.19;;;4.60;18.31
69737;BME280;64476;55.004;73.342;2023-04-15T11:22:47;100723.13;;;4.67;18.55
69737;BME280;64476;55.004;73.342;2023-04-15T11:25:50;100727.28;;;4.81;17.88
69737;BME280;64476;55.004;73.342;2023-04-15T11:28:53;100740.03;;;5.17;17.88
69737;BME280;64476;55.004;73.342;2023-04-15T11:35:05;100552.53;;;5.06;17.03
69737;BME280;64476;55.004;73.342;2023-04-15T11:38:11;100719.88;;;6.27;16.33
69737;BME280;64476;55.004;73.342;2023-04-15T11:41:24;100722.38;;;6.18;16.82
69737;BME280;64476;55.004;73.342;2023-04-15T11:44:29;100669.94;;;5.58;16.59
69737;BME280;64476;55.004;73.342;2023-04-15T11:47:32;100685.56;;;5.14;17.22
69737;BME280;64476;55.004;73.342;2023-04-15T11:50:40;100713.91;;;4.85;17.85
69737;BME280;64476;55.004;73.342;2023-04-15T11:53:46;100736.75;;;4.24;16.89
69737;BME280;64476;55.004;73.342;2023-04-15T11:56:52;100709.19;;;3.51;17.73
69737;BME280;64476;55.004;73.342;2023-04-15T11:59:55;100684.09;;;2.52;18.07
69737;BME280;64476;55.004;73.342;2023-04-15T12:03:45;100741.75;;;2.18;18.25
69737;BME280;64476;55.004;73.342;2023-04-15T12:06:47;100732.72;;;1.71;18.41
69737;BME280;64476;55.004;73.342;2023-04-15T12:09:54;100671.56;;;1.14;19.24
69737;BME280;64476;55.004;73.342;2023-04-15T12:12:57;100696.31;;;1.18;19.24
69737;BME280;64476;55.004;73.342;2023-04-15T12:15:58;100722.09;;;1.34;19.04
69737;BME280;64476;55.004;73.342;2023-04-15T12:19:04;100709.53;;;1.28;19.49
69737;BME280;64476;55.004;73.342;2023-04-15T12:22:14;100661.72;;;0.92;19.10
69737;BME280;64476;55.004;73.342;2023-04-15T12:25:53;100717.69;;;1.07;18.78
69737;BME280;64476;55.004;73.342;2023-04-15T12:29:01;100702.94;;;0.67;18.97
69737;BME280;64476;55.004;73.342;2023-04-15T12:32:40;100707.38;;;0.50;18.89
69737;BME280;64476;55.004;73.342;2023-04-15T12:35:42;100711.34;;;0.56;19.09
69737;BME280;64476;55.004;73.342;2023-04-15T12:38:52;100506.16;;;-0.86;19.17
69737;BME280;64476;55.004;73.342;2023-04-15T12:42:04;100633.66;;;0.00;19.57
69737;BME280;64476;55.004;73.342;2023-04-15T12:45:06;100684.94;;;0.36;20.25
69737;BME280;64476;55.004;73.342;2023-04-15T12:51:56;100736.09;;;0.60;19.89
69737;BME280;64476;55.004;73.342;2023-04-15T12:54:59;100710.44;;;0.43;20.09
69737;BME280;64476;55.004;73.342;2023-04-15T12:58:06;100697.00;;;0.22;19.98
69737;BME280;64476;55.004;73.342;2023-04-15T13:01:24;100719.25;;;0.24;20.25
69737;BME280;64476;55.004;73.342;2023-04-15T13:04:26;100691.25;;;0.02;20.48
69737;BME280;64476;55.004;73.342;2023-04-15T13:07:34;100732.66;;;0.31;20.42
69737;BME280;64476;55.004;73.342;2023-04-15T13:10:36;100667.25;;;0.00;20.31
69737;BME280;64476;55.004;73.342;2023-04-15T13:13:38;100692.63;;;0.08;20.26
69737;BME280;64476;55.004;73.342;2023-04-15T13:16:44;100721.81;;;0.10;20.35
69737;BME280;64476;55.004;73.342;2023-04-15T13:19:45;100539.97;;;-1.06;21.24
69737;BME280;64476;55.004;73.342;2023-04-15T13:22:47;100723.63;;;0.08;20.74
69737;BME280;64476;55.004;73.342;2023-04-15T13:25:49;100742.69;;;0.21;21.12
69737;BME280;64476;55.004;73.342;2023-04-15T13:29:01;100736.72;;;0.05;20.71
69737;BME280;64476;55.004;73.342;2023-04-15T13:32:53;100634.47;;;-0.74;20.77
69737;BME280;64476;55.004;73.342;2023-04-15T13:35:59;100678.91;;;-0.53;21.28
69737;BME280;64476;55.004;73.342;2023-04-15T13:39:01;100728.84;;;-0.38;21.42
69737;BME280;64476;55.004;73.342;2023-04-15T13:42:03;100747.47;;;-0.33;21.41
69737;BME280;64476;55.004;73.342;2023-04-15T13:45:06;100758.84;;;-0.35;21.40
69737;BME280;64476;55.004;73.342;2023-04-15T13:48:08;100730.03;;;-0.59;21.29
69737;BME280;64476;55.004;73.342;2023-04-15T13:51:09;100748.22;;;-0.47;21.22
69737;BME280;64476;55.004;73.342;2023-04-15T13:54:11;100758.31;;;-0.58;21.17
69737;BME280;64476;55.004;73.342;2023-04-15T13:57:13;100742.69;;;-0.87;21.26
69737;BME280;64476;55.004;73.342;2023-04-15T14:00:15;100713.78;;;-1.09;21.58
69737;BME280;64476;55.004;73.342;2023-04-15T14:03:16;100771.53;;;-0.96;21.81
69737;BME280;64476;55.004;73.342;2023-04-15T14:06:24;100762.72;;;-1.25;21.95
69737;BME280;64476;55.004;73.342;2023-04-15T14:09:27;100750.19;;;-1.48;22.25
69737;BME280;64476;55.004;73.342;2023-04-15T14:12:29;100704.31;;;-1.92;22.32
69737;BME280;64476;55.004;73.342;2023-04-15T14:15:31;100755.97;;;-1.61;22.03
69737;BME280;64476;55.004;73.342;2023-04-15T14:18:33;100727.41;;;-1.73;22.33
69737;BME280;64476;55.004;73.342;2023-04-15T14:22:07;100734.81;;;-1.67;22.52
69737;BME280;64476;55.004;73.342;2023-04-15T14:25:11;100763.63;;;-1.59;22.61
69737;BME280;64476;55.004;73.342;2023-04-15T14:28:47;100772.31;;;-1.62;22.80
69737;BME280;64476;55.004;73.342;2023-04-15T14:31:58;100750.03;;;-1.80;22.69
69737;BME280;64476;55.004;73.342;2023-04-15T14:34:59;100740.44;;;-1.94;22.58
69737;BME280;64476;55.004;73.342;2023-04-15T14:38:01;100793.84;;;-1.63;22.76
69737;BME280;64476;55.004;73.342;2023-04-15T14:41:03;100754.16;;;-1.93;22.56
69737;BME280;64476;55.004;73.342;2023-04-15T14:44:05;100788.31;;;-1.72;23.12
69737;BME280;64476;55.004;73.342;2023-04-15T14:47:09;100808.34;;;-1.60;23.21
69737;BME280;64476;55.004;73.342;2023-04-15T14:50:11;100758.16;;;-1.88;23.41
69737;BME280;64476;55.004;73.342;2023-04-15T14:53:13;100764.00;;;-1.84;23.89
69737;BME280;64476;55.004;73.342;2023-04-15T14:56:25;100790.88;;;-1.72;23.82
69737;BME280;64476;55.004;73.342;2023-04-15T14:59:30;100785.13;;;-1.77;23.97
69737;BME280;64476;55.004;73.342;2023-04-15T15:02:33;100775.28;;;-1.87;23.90
69737;BME280;64476;55.004;73.342;2023-04-15T15:05:37;100777.84;;;-1.87;23.91
69737;BME280;64476;55.004;73.342;2023-04-15T15:08:39;100808.88;;;-1.71;24.08
69737;BME280;64476;55.004;73.342;2023-04-15T15:11:41;100800.22;;;-1.70;24.08
69737;BME280;64476;55.004;73.342;2023-04-15T15:14:45;100758.63;;;-1.97;24.32
69737;BME280;64476;55.004;73.342;2023-04-15T15:17:50;100801.81;;;-1.85;24.11
69737;BME280;64476;55.004;73.342;2023-04-15T15:20:52;100796.34;;;-1.96;24.38
69737;BME280;64476;55.004;73.342;2023-04-15T15:24:35;100827.88;;;-1.73;24.59
69737;BME280;64476;55.004;73.342;2023-04-15T15:27:46;100740.16;;;-2.24;24.18
69737;BME280;64476;55.004;73.342;2023-04-15T15:30:57;100773.13;;;-2.13;24.51
69737;BME280;64476;55.004;73.342;2023-04-15T15:34:04;100784.09;;;-2.10;24.35
69737;BME280;64476;55.004;73.342;2023-04-15T15:37:06;100834.91;;;-1.77;24.47
69737;BME280;64476;55.004;73.342;2023-04-15T15:40:08;100826.03;;;-1.89;24.79
69737;BME280;64476;55.004;73.342;2023-04-15T15:43:19;100831.09;;;-1.87;24.74
69737;BME280;64476;55.004;73.342;2023-04-15T15:50:04;100822.25;;;-1.82;24.52
69737;BME280;64476;55.004;73.342;2023-04-15T15:53:11;100833.81;;;-1.71;24.47
69737;BME280;64476;55.004;73.342;2023-04-15T15:56:44;100744.56;;;-2.26;24.53
69737;BME280;64476;55.004;73.342;2023-04-15T15:59:46;100824.84;;;-1.82;24.39
69737;BME280;64476;55.004;73.342;2023-04-15T16:02:48;100842.41;;;-1.72;24.26
69737;BME280;64476;55.004;73.342;2023-04-15T16:05:49;100838.94;;;-1.71;24.71
69737;BME280;64476;55.004;73.342;2023-04-15T16:08:51;100805.50;;;-1.90;24.44
69737;BME280;64476;55.004;73.342;2023-04-15T16:12:01;100784.66;;;-2.03;24.27
69737;BME280;64476;55.004;73.342;2023-04-15T16:15:04;100831.91;;;-1.68;23.89
69737;BME280;64476;55.004;73.342;2023-04-15T16:18:06;100844.41;;;-1.60;24.43
69737;BME280;64476;55.004;73.342;2023-04-15T16:21:08;100839.56;;;-1.66;24.53
69737;BME280;64476;55.004;73.342;2023-04-15T16:24:10;100841.44;;;-1.70;24.24
69737;BME280;64476;55.004;73.342;2023-04-15T16:27:14;100832.06;;;-1.71;24.63
69737;BME280;64476;55.004;73.342;2023-04-15T16:30:31;100814.91;;;-1.72;24.49
69737;BME280;64476;55.004;73.342;2023-04-15T16:33:39;100775.19;;;-2.02;24.61
69737;BME280;64476;55.004;73.342;2023-04-15T16:36:41;100798.69;;;-1.91;24.88
69737;BME280;64476;55.004;73.342;2023-04-15T16:39:43;100772.97;;;-2.10;24.56
69737;BME280;64476;55.004;73.342;2023-04-15T16:42:45;100771.59;;;-2.17;24.68
69737;BME280;64476;55.004;73.342;2023-04-15T16:45:46;100820.75;;;-1.86;24.62
69737;BME280;64476;55.004;73.342;2023-04-15T16:48:51;100824.06;;;-1.84;24.98
69737;BME280;64476;55.004;73.342;2023-04-15T16:51:57;100788.38;;;-2.09;25.29
69737;BME280;64476;55.004;73.342;2023-04-15T16:54:59;100824.44;;;-1.91;25.30
69737;BME280;64476;55.004;73.342;2023-04-15T16:58:01;100834.13;;;-1.96;25.53
69737;BME280;64476;55.004;73.342;2023-04-15T17:01:03;100730.41;;;-2.53;25.75
69737;BME280;64476;55.004;73.342;2023-04-15T17:07:20;100805.91;;;-2.17;25.76